Time;durP1;ratioP1;P1;durP2;ratioP2;P2;SDS_P1;SDS_P2;PMS_P1;PMS_P2;Temp;Humidity;BMP_temperature;BMP_pressure;BME280_temperature;BME280_humidity;BME280_pressure;Samples;Min_cycle;Max_cycle;Signal;HPM_P1;HPM_P2
2022/03/31 00:00:54;;;;;;;9.07;6.83;;;4.50;99.90;;;5.18;100.00;-19903.06;5011669;28;20235;-60
2022/03/31 00:03:23;;;;;;;8.50;6.43;;;4.40;99.90;;;5.04;100.00;-19898.47;5011814;28;20234;-61
2022/03/31 00:05:51;;;;;;;7.97;6.67;;;4.30;99.90;;;4.90;100.00;-19893.69;5011589;28;20224;-60
2022/03/31 00:08:21;;;;;;;9.20;7.03;;;4.20;99.90;;;5.04;100.00;-19898.47;5011708;28;20655;-60
2022/03/31 00:10:52;;;;;;;8.63;7.37;;;4.20;99.90;;;5.19;100.00;-19903.59;5011605;28;20226;-60
2022/03/31 00:13:23;;;;;;;10.40;7.87;;;4.20;99.90;;;5.14;100.00;-19901.72;5012138;28;20302;-61
2022/03/31 00:15:54;;;;;;;9.60;7.83;;;4.20;99.90;;;5.18;100.00;-19903.25;5011917;28;20687;-59
2022/03/31 00:18:22;;;;;;;11.07;7.30;;;4.20;99.90;;;4.98;100.00;-19896.59;5011522;28;20556;-61
2022/03/31 00:20:50;;;;;;;12.20;7.97;;;4.20;99.90;;;4.96;100.00;-19895.91;5011422;28;20230;-62
2022/03/31 00:23:19;;;;;;;11.23;7.57;;;4.10;99.90;;;5.09;100.00;-19900.16;5011655;28;20222;-60
2022/03/31 00:25:47;;;;;;;8.80;7.90;;;4.20;99.90;;;5.20;100.00;-19903.75;5003795;28;20290;-61
2022/03/31 00:28:15;;;;;;;12.03;8.90;;;4.20;99.90;;;5.11;100.00;-19900.69;4992001;28;20701;-60
2022/03/31 00:30:44;;;;;;;9.63;7.83;;;4.20;99.90;;;5.24;100.00;-19905.13;4991633;28;20315;-61
2022/03/31 00:33:13;;;;;;;10.80;7.87;;;4.20;99.90;;;5.12;100.00;-19901.19;4991605;28;20810;-60
2022/03/31 00:35:41;;;;;;;10.83;9.07;;;4.20;99.90;;;4.98;100.00;-19896.59;4991742;28;20320;-62
2022/03/31 00:38:10;;;;;;;10.67;8.07;;;4.20;99.90;;;5.27;100.00;-19906.16;4991545;28;20303;-61
2022/03/31 00:40:39;;;;;;;10.53;8.37;;;4.20;99.90;;;5.27;100.00;-19906.31;4998314;28;20245;-59
2022/03/31 00:43:08;;;;;;;10.40;8.90;;;4.30;99.90;;;5.16;100.00;-19902.41;5011298;28;20225;-60
2022/03/31 00:45:46;;;;;;;11.57;9.23;;;4.30;99.90;;;5.34;100.00;-19908.72;5010687;28;20226;-60
2022/03/31 00:48:18;;;;;;;13.37;8.60;;;4.40;99.90;;;5.11;100.00;-19900.69;5010890;28;20744;-61
2022/03/31 00:50:47;;;;;;;11.83;9.37;;;4.30;99.90;;;5.12;100.00;-19901.03;5011069;28;20232;-61
2022/03/31 00:53:16;;;;;;;11.57;8.73;;;4.30;99.90;;;5.28;100.00;-19906.66;5011021;28;20276;-60
2022/03/31 00:55:56;;;;;;;14.00;9.90;;;4.40;99.90;;;5.52;100.00;-19914.69;5011090;28;20229;-61
2022/03/31 00:58:25;;;;;;;13.53;9.80;;;4.50;99.90;;;5.55;100.00;-19915.72;5011411;28;20245;-60
2022/03/31 01:00:53;;;;;;;14.33;10.53;;;4.50;99.90;;;5.37;100.00;-19909.56;5010633;28;20735;-61
2022/03/31 01:03:22;;;;;;;13.37;10.30;;;4.40;99.90;;;5.53;100.00;-19915.22;5010703;28;20231;-60
2022/03/31 01:05:51;;;;;;;14.80;11.00;;;4.50;99.90;;;5.49;100.00;-19913.84;5010831;28;20728;-60
2022/03/31 01:08:21;;;;;;;14.03;10.47;;;4.50;99.90;;;5.62;100.00;-19918.13;5011154;28;20576;-60
2022/03/31 01:10:50;;;;;;;15.03;11.70;;;4.60;99.90;;;5.60;100.00;-19917.44;5010766;28;20277;-60
2022/03/31 01:13:18;;;;;;;16.63;11.63;;;4.60;99.90;;;5.61;100.00;-19917.94;5010850;28;20306;-59
2022/03/31 01:15:46;;;;;;;16.17;12.03;;;4.60;99.90;;;5.48;100.00;-19913.34;5010876;28;20281;-60
2022/03/31 01:18:14;;;;;;;17.87;12.37;;;4.60;99.90;;;5.49;100.00;-19913.84;5010631;28;20228;-61
2022/03/31 01:20:43;;;;;;;15.80;12.30;;;4.60;99.90;;;5.34;100.00;-19908.53;5010623;28;20224;-61
2022/03/31 01:23:15;;;;;;;17.67;12.80;;;4.60;99.90;;;5.60;100.00;-19917.44;5010046;28;20601;-59
2022/03/31 01:25:43;;;;;;;17.53;12.50;;;4.60;99.90;;;5.80;100.00;-19924.28;5003525;28;20280;-60
2022/03/31 01:28:12;;;;;;;15.50;12.30;;;4.70;99.90;;;5.83;100.00;-19925.31;4991401;28;20200;-61
2022/03/31 01:30:40;;;;;;;17.50;13.07;;;4.70;99.90;;;5.61;100.00;-19917.94;4990647;28;20271;-60
2022/03/31 01:33:08;;;;;;;15.77;13.50;;;4.70;99.90;;;5.72;100.00;-19921.69;4990561;28;20312;-61
2022/03/31 01:35:36;;;;;;;16.27;13.00;;;4.70;99.90;;;5.70;100.00;-19921.03;4990774;28;20748;-61
2022/03/31 01:38:04;;;;;;;15.60;13.13;;;4.70;99.90;;;5.62;100.00;-19918.13;4990743;28;20224;-61
2022/03/31 01:40:36;;;;;;;14.40;12.53;;;4.70;99.90;;;5.59;100.00;-19917.09;4996526;28;20688;-60
2022/03/31 01:43:04;;;;;;;17.47;12.60;;;4.70;99.90;;;5.49;100.00;-19913.66;5010594;28;20622;-60
2022/03/31 01:45:33;;;;;;;15.03;11.93;;;4.70;99.90;;;5.51;100.00;-19914.34;5010260;28;20228;-60
2022/03/31 01:48:04;;;;;;;13.93;11.43;;;4.60;99.90;;;5.46;100.00;-19912.66;5010065;28;20629;-61
2022/03/31 01:50:33;;;;;;;16.30;12.10;;;4.60;99.90;;;5.47;100.00;-19912.97;5010412;28;20228;-62
2022/03/31 01:53:01;;;;;;;15.40;11.73;;;4.60;99.90;;;5.21;100.00;-19904.09;5009917;28;20255;-61
2022/03/31 01:55:30;;;;;;;13.80;11.37;;;4.50;99.90;;;5.32;100.00;-19908.03;5010679;28;20295;-60
2022/03/31 01:57:59;;;;;;;15.77;11.83;;;4.50;99.90;;;5.32;100.00;-19908.03;5010038;28;20756;-59
2022/03/31 02:00:28;;;;;;;14.40;11.00;;;4.50;99.90;;;5.20;100.00;-19903.94;5010120;28;20712;-62
2022/03/31 02:02:56;;;;;;;13.20;10.13;;;4.40;99.90;;;5.23;100.00;-19904.94;5010019;28;20315;-61
2022/03/31 02:05:24;;;;;;;13.53;10.67;;;4.40;99.90;;;5.04;100.00;-19898.47;5010120;28;20711;-61
2022/03/31 02:07:54;;;;;;;12.27;9.40;;;4.40;99.90;;;5.22;100.00;-19904.44;5009951;28;20295;-60
2022/03/31 02:10:25;;;;;;;11.23;9.93;;;4.30;99.90;;;5.14;100.00;-19901.88;5010726;28;20304;-61
2022/03/31 02:12:54;;;;;;;12.67;9.43;;;4.30;99.90;;;5.13;100.00;-19901.53;5009655;28;20235;-61
2022/03/31 02:15:25;;;;;;;11.50;9.27;;;4.30;99.90;;;5.13;100.00;-19901.53;5010016;28;20260;-60
2022/03/31 02:17:55;;;;;;;11.23;8.83;;;4.30;99.90;;;5.09;100.00;-19900.00;5009930;28;20263;-61
2022/03/31 02:20:24;;;;;;;11.47;9.43;;;4.30;99.90;;;4.99;100.00;-19896.75;5009903;28;20247;-61
2022/03/31 02:22:53;;;;;;;14.70;9.30;;;4.20;99.90;;;4.97;100.00;-19896.22;5010091;28;20201;-60
2022/03/31 02:25:21;;;;;;;12.90;9.00;;;4.10;99.90;;;4.96;100.00;-19895.91;5006056;28;20586;-60
2022/03/31 02:27:52;;;;;;;11.77;9.33;;;4.10;99.90;;;4.91;100.00;-19894.19;4990162;28;20723;-62
2022/03/31 02:30:22;;;;;;;11.83;9.37;;;4.00;99.90;;;4.78;100.00;-19889.75;4990106;28;20255;-60
2022/03/31 02:32:52;;;;;;;11.27;8.93;;;4.00;99.90;;;4.80;100.00;-19890.41;4990639;28;20234;-60
2022/03/31 02:35:20;;;;;;;12.37;9.90;;;4.00;99.90;;;4.57;100.00;-19882.38;4993701;28;20789;-62
2022/03/31 02:37:48;;;;;;;11.10;9.17;;;3.80;99.90;;;4.53;100.00;-19881.19;5007067;28;20237;-60
2022/03/31 02:40:16;;;;;;;13.43;9.63;;;3.80;99.90;;;4.26;100.00;-19871.97;5014051;28;20187;-61
2022/03/31 02:42:44;;;;;;;11.20;9.00;;;3.60;99.90;;;4.20;100.00;-19869.91;5013296;28;20315;-61
2022/03/31 02:45:13;;;;;;;13.40;9.83;;;3.50;99.90;;;4.06;100.00;-19864.97;5013367;28;20238;-61
2022/03/31 02:47:44;;;;;;;12.80;10.40;;;3.40;99.90;;;3.95;100.00;-19861.38;5013271;28;20251;-61
2022/03/31 02:50:15;;;;;;;12.03;9.23;;;3.30;99.90;;;3.88;100.00;-19858.81;5013350;28;20283;-61
2022/03/31 02:55:44;;;;;;;14.67;10.80;;;3.10;99.90;;;3.92;100.00;-19860.16;4971487;28;20358;-61
2022/03/31 02:58:12;;;;;;;14.67;10.57;;;3.10;99.90;;;4.04;100.00;-19864.44;4972021;28;20211;-60
2022/03/31 03:00:40;;;;;;;13.97;11.10;;;3.10;99.90;;;3.92;100.00;-19860.16;4990029;28;20235;-60
2022/03/31 03:03:11;;;;;;;13.20;10.70;;;3.10;99.90;;;3.80;100.00;-19856.06;5012813;28;20227;-60
2022/03/31 03:05:41;;;;;;;16.30;11.87;;;3.10;99.90;;;3.69;100.00;-19852.66;5012724;28;20233;-61
2022/03/31 03:08:10;;;;;;;16.13;11.10;;;3.00;99.90;;;3.97;100.00;-19861.88;5013124;28;20222;-60
2022/03/31 03:10:38;;;;;;;15.73;11.33;;;3.10;99.90;;;3.85;100.00;-19857.94;5013298;28;20222;-60
2022/03/31 03:13:06;;;;;;;18.27;11.10;;;3.00;99.90;;;3.91;100.00;-19860.00;5013112;28;20233;-61
2022/03/31 03:15:36;;;;;;;13.83;10.20;;;3.00;99.90;;;3.87;100.00;-19858.63;5012639;28;20312;-61
2022/03/31 03:18:04;;;;;;;14.50;10.77;;;3.00;99.90;;;3.65;100.00;-19851.28;5012693;28;20239;-61
2022/03/31 03:20:32;;;;;;;17.03;11.87;;;2.80;99.90;;;3.54;100.00;-19847.34;5012770;28;20214;-60
2022/03/31 03:23:01;;;;;;;15.57;11.20;;;2.80;99.90;;;3.68;100.00;-19852.13;5013116;28;20697;-60
2022/03/31 03:25:29;;;;;;;14.90;11.10;;;2.80;99.90;;;3.66;100.00;-19851.44;5013215;28;20281;-60
2022/03/31 03:27:59;;;;;;;14.50;11.37;;;2.80;99.90;;;3.66;100.00;-19851.44;5012519;28;20320;-60
2022/03/31 03:30:27;;;;;;;15.67;12.00;;;2.80;99.90;;;3.70;100.00;-19853.00;5012458;28;20238;-61
2022/03/31 03:32:55;;;;;;;15.73;11.50;;;2.80;99.90;;;3.64;100.00;-19850.94;5012147;28;20621;-59
2022/03/31 03:35:23;;;;;;;12.87;10.80;;;2.80;99.90;;;3.64;100.00;-19850.78;5012694;28;20308;-59
2022/03/31 03:37:51;;;;;;;13.53;11.50;;;2.80;99.90;;;3.70;100.00;-19853.00;5012660;28;20203;-60
2022/03/31 03:40:21;;;;;;;14.10;10.97;;;2.90;99.90;;;3.74;100.00;-19854.34;5013133;28;20293;-59
2022/03/31 03:42:49;;;;;;;14.70;10.77;;;2.80;99.90;;;3.86;100.00;-19858.13;5012026;28;20234;-61
2022/03/31 03:45:17;;;;;;;15.63;10.60;;;2.80;99.90;;;3.97;100.00;-19861.88;5011607;28;20239;-59
2022/03/31 03:47:45;;;;;;;12.73;9.83;;;3.00;99.90;;;4.05;100.00;-19864.63;5012287;28;20308;-59
2022/03/31 03:50:13;;;;;;;15.13;10.40;;;3.00;99.90;;;4.04;100.00;-19864.28;5011883;28;20229;-60
2022/03/31 03:52:41;;;;;;;14.27;10.10;;;3.10;99.90;;;4.07;100.00;-19865.47;5012082;28;20240;-59
2022/03/31 03:55:10;;;;;;;15.00;9.67;;;3.10;99.90;;;4.07;100.00;-19865.31;5012192;28;20302;-60
2022/03/31 03:57:40;;;;;;;11.30;9.17;;;3.20;99.90;;;4.15;100.00;-19868.22;5011751;28;20309;-60
2022/03/31 04:00:11;;;;;;;10.93;8.80;;;3.20;99.90;;;4.24;100.00;-19871.13;5011673;28;20225;-60
2022/03/31 04:02:41;;;;;;;13.57;9.50;;;3.20;99.90;;;4.12;100.00;-19867.19;5011738;28;20304;-59
2022/03/31 04:05:10;;;;;;;11.97;9.47;;;3.20;99.90;;;4.19;100.00;-19869.41;5011783;28;20234;-60
2022/03/31 04:07:38;;;;;;;11.70;9.03;;;3.20;99.90;;;4.05;100.00;-19864.78;5012899;28;20644;-60
2022/03/31 04:10:09;;;;;;;12.30;8.27;;;3.30;99.90;;;4.23;100.00;-19870.78;5012173;28;20653;-59
2022/03/31 04:12:38;;;;;;;13.90;9.70;;;3.20;99.90;;;4.12;100.00;-19867.00;5011888;28;20249;-59
2022/03/31 04:15:09;;;;;;;12.10;9.07;;;3.20;99.90;;;4.10;100.00;-19866.50;5011663;28;20240;-58
2022/03/31 04:17:37;;;;;;;10.47;8.40;;;3.20;99.90;;;4.16;100.00;-19868.38;5011609;28;20324;-61
2022/03/31 04:20:07;;;;;;;12.10;8.30;;;3.20;99.90;;;4.08;100.00;-19865.63;5011826;28;20300;-60
2022/03/31 04:22:37;;;;;;;9.80;8.40;;;3.10;99.90;;;3.94;100.00;-19860.84;5012066;28;20215;-61
2022/03/31 04:25:07;;;;;;;9.87;8.43;;;3.00;99.90;;;3.98;100.00;-19862.22;5011765;28;20249;-58
2022/03/31 04:27:37;;;;;;;11.40;8.90;;;3.10;99.90;;;4.08;100.00;-19865.63;5011236;28;20787;-61
2022/03/31 04:30:10;;;;;;;12.83;8.33;;;3.10;99.90;;;4.04;100.00;-19864.44;5011622;28;20714;-61
2022/03/31 04:32:39;;;;;;;11.90;8.77;;;3.10;99.90;;;3.99;100.00;-19862.72;5011441;28;20237;-61
2022/03/31 04:35:10;;;;;;;14.30;8.57;;;3.10;99.90;;;3.82;100.00;-19856.94;5011976;28;20224;-61
2022/03/31 04:37:38;;;;;;;11.80;8.13;;;3.10;99.90;;;3.95;100.00;-19861.19;5012184;28;20301;-60
2022/03/31 04:40:09;;;;;;;11.20;8.43;;;3.10;99.90;;;4.12;100.00;-19867.00;5011624;28;20300;-60
2022/03/31 04:42:38;;;;;;;12.17;8.60;;;3.20;99.90;;;4.08;100.00;-19865.63;5011063;28;20309;-60
2022/03/31 04:45:09;;;;;;;11.03;8.30;;;3.10;99.90;;;3.91;100.00;-19859.84;5011212;28;20666;-60
2022/03/31 04:47:37;;;;;;;11.27;8.00;;;3.10;99.90;;;3.93;100.00;-19860.69;5011074;28;20415;-60
2022/03/31 04:50:12;;;;;;;11.47;8.20;;;3.10;99.90;;;3.92;100.00;-19860.34;5011478;28;20588;-60
2022/03/31 04:52:41;;;;;;;11.40;8.40;;;3.10;99.90;;;3.96;100.00;-19861.72;5010867;28;20763;-61
2022/03/31 04:55:11;;;;;;;11.07;9.07;;;3.10;99.90;;;4.06;100.00;-19865.13;5011756;28;20294;-60
2022/03/31 04:57:39;;;;;;;9.17;7.53;;;3.10;99.90;;;4.10;100.00;-19866.31;5009733;28;20289;-59
2022/03/31 05:00:11;;;;;;;10.60;8.40;;;3.20;99.90;;;4.11;100.00;-19866.84;5010857;28;20650;-61
2022/03/31 05:02:39;;;;;;;12.70;8.83;;;3.20;99.90;;;3.87;100.00;-19858.47;5010711;28;20227;-60
2022/03/31 05:05:08;;;;;;;13.57;9.53;;;3.10;99.90;;;3.90;100.00;-19859.66;5010906;28;20226;-62
2022/03/31 05:07:36;;;;;;;9.87;8.63;;;3.00;99.90;;;3.97;100.00;-19862.06;5011109;28;20298;-60
2022/03/31 05:10:06;;;;;;;13.07;9.43;;;3.00;99.90;;;4.12;100.00;-19867.19;5011176;28;20297;-60
2022/03/31 05:12:34;;;;;;;13.43;9.07;;;3.10;99.90;;;3.99;100.00;-19862.72;5010347;28;20743;-61
2022/03/31 05:15:02;;;;;;;12.90;9.27;;;3.00;99.90;;;3.84;100.00;-19857.59;5010545;28;20906;-60
2022/03/31 05:17:36;;;;;;;13.23;9.20;;;3.00;99.90;;;3.87;100.00;-19858.47;5010318;28;20273;-60
2022/03/31 05:20:06;;;;;;;12.57;9.30;;;3.00;99.90;;;3.86;100.00;-19858.28;5010557;28;20301;-59
2022/03/31 05:22:35;;;;;;;13.23;9.23;;;3.00;99.90;;;4.11;100.00;-19866.66;5011140;28;20189;-60
2022/03/31 05:25:05;;;;;;;12.50;9.57;;;3.10;99.90;;;3.93;100.00;-19860.69;5009821;28;20228;-59
2022/03/31 05:27:32;;;;;;;12.40;9.97;;;3.10;99.90;;;3.98;100.00;-19862.22;5010723;28;20671;-61
2022/03/31 05:30:00;;;;;;;14.37;10.40;;;3.10;99.90;;;4.10;100.00;-19866.50;5010300;28;20324;-59
2022/03/31 05:32:28;;;;;;;13.13;10.10;;;3.10;99.90;;;4.17;100.00;-19868.72;5009937;28;20797;-60
2022/03/31 05:34:58;;;;;;;13.37;10.80;;;3.10;99.90;;;4.12;100.00;-19867.19;5010518;28;20205;-60
2022/03/31 05:37:26;;;;;;;13.03;10.83;;;3.20;99.90;;;4.00;100.00;-19863.06;5010827;28;20202;-60
2022/03/31 05:39:54;;;;;;;12.80;9.70;;;3.20;99.90;;;3.93;100.00;-19860.50;5010107;28;20320;-60
2022/03/31 05:42:22;;;;;;;14.43;10.83;;;3.10;99.90;;;4.03;100.00;-19864.09;5009968;28;20222;-60
2022/03/31 05:44:50;;;;;;;15.10;11.67;;;3.10;99.90;;;3.97;100.00;-19862.06;5010306;28;20234;-60
2022/03/31 05:47:18;;;;;;;14.60;11.33;;;3.10;99.90;;;3.87;100.00;-19858.63;5010006;28;20773;-61
2022/03/31 05:49:45;;;;;;;12.70;10.43;;;3.00;99.90;;;3.97;100.00;-19861.88;5010013;28;20679;-63
2022/03/31 05:52:15;;;;;;;17.17;11.37;;;3.00;99.90;;;4.00;100.00;-19862.91;5010826;28;20231;-60
2022/03/31 05:54:43;;;;;;;15.67;11.50;;;3.00;99.90;;;4.01;100.00;-19863.25;5010039;28;20312;-61
2022/03/31 05:57:12;;;;;;;14.27;10.60;;;3.10;99.90;;;3.83;100.00;-19857.25;5010021;28;20299;-61
2022/03/31 05:59:40;;;;;;;14.03;11.50;;;3.00;99.90;;;3.92;100.00;-19860.34;5010029;28;20226;-61
2022/03/31 06:02:09;;;;;;;17.63;11.57;;;3.00;99.90;;;3.76;100.00;-19854.88;5009805;28;20709;-60
2022/03/31 06:04:51;;;;;;;14.13;11.60;;;2.90;99.90;;;3.82;100.00;-19856.94;5010079;28;20243;-61
2022/03/31 06:07:21;;;;;;;15.13;11.50;;;2.90;99.90;;;4.01;100.00;-19863.25;5010644;28;20214;-59
2022/03/31 06:09:48;;;;;;;17.67;11.67;;;3.00;99.90;;;4.01;100.00;-19863.41;5013740;28;20242;-60
2022/03/31 06:12:17;;;;;;;14.80;11.63;;;3.10;99.90;;;4.05;100.00;-19864.78;5013615;28;20726;-60
2022/03/31 06:14:45;;;;;;;16.00;11.97;;;3.10;99.90;;;4.00;100.00;-19863.06;5013793;28;20226;-61
2022/03/31 06:17:13;;;;;;;15.13;11.70;;;3.10;99.90;;;4.18;100.00;-19869.22;5013715;28;20229;-60
2022/03/31 06:19:41;;;;;;;14.57;12.17;;;3.10;99.90;;;4.19;100.00;-19869.41;5013649;28;20204;-61
2022/03/31 06:22:10;;;;;;;19.03;13.00;;;3.20;99.90;;;3.95;100.00;-19861.38;5014141;28;20587;-60
2022/03/31 06:24:39;;;;;;;16.50;12.20;;;3.10;99.90;;;4.14;100.00;-19867.69;5014052;28;20238;-62
2022/03/31 06:27:10;;;;;;;18.07;13.30;;;3.10;99.90;;;4.24;100.00;-19871.13;5012781;28;20779;-60
2022/03/31 06:29:45;;;;;;;15.90;12.90;;;3.20;99.90;;;4.23;100.00;-19870.78;5013955;28;20237;-60
2022/03/31 06:32:13;;;;;;;16.63;13.43;;;3.20;99.90;;;4.42;100.00;-19877.44;5013402;28;20336;-59
2022/03/31 06:34:42;;;;;;;23.73;13.87;;;3.30;99.90;;;4.44;100.00;-19878.13;5013769;28;20210;-60
2022/03/31 06:37:11;;;;;;;15.77;13.10;;;3.40;99.90;;;4.64;100.00;-19884.97;5013864;28;20646;-60
2022/03/31 06:39:44;;;;;;;19.30;14.90;;;3.50;99.90;;;4.52;100.00;-19880.84;5013280;28;20236;-60
2022/03/31 06:42:12;;;;;;;21.27;13.23;;;3.60;99.90;;;4.44;100.00;-19877.94;5013309;28;20229;-60
2022/03/31 06:44:41;;;;;;;20.00;14.17;;;3.50;99.90;;;4.54;100.00;-19881.53;5013419;28;20308;-60
2022/03/31 06:47:09;;;;;;;21.07;14.90;;;3.60;99.90;;;4.77;100.00;-19889.41;5013377;28;20310;-59
2022/03/31 06:49:37;;;;;;;20.17;14.83;;;3.60;99.90;;;5.03;100.00;-19897.94;5013971;28;20203;-60
2022/03/31 06:52:06;;;;;;;21.73;15.50;;;3.80;99.90;;;4.91;100.00;-19894.19;5013446;28;20309;-59
2022/03/31 06:54:34;;;;;;;21.53;15.43;;;3.90;99.90;;;4.97;100.00;-19896.22;5012955;28;20446;-61
2022/03/31 06:57:03;;;;;;;22.90;15.67;;;3.90;99.90;;;5.29;100.00;-19907.00;5013023;28;20256;-60
2022/03/31 06:59:33;;;;;;;20.10;14.97;;;4.10;99.90;;;5.25;100.00;-19905.47;5012942;28;20317;-60
2022/03/31 07:02:04;;;;;;;23.00;15.27;;;4.10;99.90;;;5.12;100.00;-19901.19;5012860;28;20317;-60
2022/03/31 07:04:32;;;;;;;19.20;15.37;;;4.10;99.90;;;5.04;100.00;-19898.28;5013309;28;20206;-60
2022/03/31 07:07:00;;;;;;;23.87;17.03;;;4.10;99.90;;;4.97;100.00;-19896.22;5012793;28;20777;-61
2022/03/31 07:09:28;;;;;;;24.27;16.63;;;4.00;99.90;;;5.10;100.00;-19900.50;5012786;28;20315;-61
2022/03/31 07:11:56;;;;;;;20.43;16.40;;;4.10;99.90;;;4.97;100.00;-19896.06;5013035;28;20250;-61
2022/03/31 07:14:26;;;;;;;21.60;16.60;;;4.00;99.90;;;5.11;100.00;-19900.84;5012535;28;20756;-60
2022/03/31 07:16:54;;;;;;;19.93;15.93;;;4.10;99.90;;;5.03;100.00;-19898.13;5012572;28;20654;-61
2022/03/31 07:19:23;;;;;;;21.23;16.63;;;4.10;99.90;;;5.12;100.00;-19901.03;5012072;28;20622;-60
2022/03/31 07:21:52;;;;;;;23.53;16.57;;;4.10;99.90;;;5.11;100.00;-19900.84;5012395;28;20231;-60
2022/03/31 07:24:20;;;;;;;22.27;17.67;;;4.10;99.90;;;5.15;100.00;-19902.22;5012453;28;20257;-58
2022/03/31 07:26:48;;;;;;;26.90;17.20;;;4.20;99.90;;;5.17;100.00;-19902.72;5010404;28;20396;-57
2022/03/31 07:29:16;;;;;;;21.33;17.10;;;4.20;99.90;;;5.10;100.00;-19900.34;5011918;28;20226;-59
2022/03/31 07:31:45;;;;;;;21.17;16.50;;;4.10;99.90;;;5.08;100.00;-19899.66;5012221;28;20613;-55
2022/03/31 07:34:13;;;;;;;20.70;16.53;;;4.00;99.90;;;4.89;100.00;-19893.50;5012587;28;20274;-55
2022/03/31 07:36:41;;;;;;;22.20;19.43;;;4.00;99.90;;;5.19;100.00;-19903.41;5011636;28;20514;-60
2022/03/31 07:39:09;;;;;;;22.10;16.67;;;4.00;99.90;;;5.32;100.00;-19907.84;5011867;28;20465;-59
2022/03/31 07:41:37;;;;;;;20.07;16.67;;;4.10;99.90;;;5.22;100.00;-19904.44;4997938;28;20228;-59
2022/03/31 07:44:06;;;;;;;21.37;16.53;;;4.10;99.90;;;5.30;100.00;-19907.19;4992535;28;20244;-58
2022/03/31 07:46:35;;;;;;;19.57;15.53;;;4.20;99.90;;;5.12;100.00;-19901.03;4993369;28;20208;-53
2022/03/31 07:49:04;;;;;;;20.50;15.97;;;4.10;99.90;;;5.19;100.00;-19903.41;4992099;28;20244;-56
2022/03/31 07:51:32;;;;;;;23.33;16.43;;;4.10;99.90;;;5.16;100.00;-19902.41;4992328;28;20568;-55
2022/03/31 07:54:01;;;;;;;22.37;16.17;;;4.10;99.90;;;5.10;100.00;-19900.50;4992296;28;20319;-54
2022/03/31 07:56:29;;;;;;;21.10;15.87;;;4.10;99.90;;;5.14;100.00;-19901.72;4992248;28;20318;-54
2022/03/31 07:58:57;;;;;;;20.07;15.10;;;4.10;99.90;;;4.96;100.00;-19895.91;4992041;28;20215;-55
2022/03/31 08:01:25;;;;;;;18.43;15.77;;;4.10;99.90;;;4.95;100.00;-19895.56;4992827;28;20206;-57
2022/03/31 08:03:53;;;;;;;23.83;16.83;;;4.00;99.90;;;4.96;100.00;-19895.91;4991899;28;20586;-56
2022/03/31 08:06:24;;;;;;;19.43;15.73;;;4.00;99.90;;;5.15;100.00;-19902.03;4991926;28;20253;-57
2022/03/31 08:08:52;;;;;;;20.03;16.03;;;4.00;99.90;;;5.10;100.00;-19900.50;4991979;28;20226;-58
2022/03/31 08:11:20;;;;;;;20.27;15.20;;;4.10;99.90;;;5.17;100.00;-19902.91;4991739;28;20423;-57
2022/03/31 08:13:48;;;;;;;20.63;15.77;;;4.10;99.90;;;5.28;100.00;-19906.50;4993029;28;20316;-56
2022/03/31 08:16:17;;;;;;;19.70;15.00;;;4.20;99.90;;;5.51;100.00;-19914.53;5012126;28;20213;-57
2022/03/31 08:18:45;;;;;;;20.90;14.90;;;4.30;99.90;;;5.57;100.00;-19916.41;5011396;28;20319;-58
2022/03/31 08:21:13;;;;;;;17.20;14.83;;;4.40;99.90;;;5.73;100.00;-19922.03;5010957;28;20309;-57
2022/03/31 08:23:43;;;;;;;16.80;14.40;;;4.50;99.90;;;5.86;100.00;-19926.31;5011472;28;20230;-58
2022/03/31 08:26:11;;;;;;;19.23;14.93;;;4.50;99.90;;;5.98;100.00;-19930.44;5000006;28;20644;-56
2022/03/31 08:28:40;;;;;;;18.40;14.23;;;4.70;99.90;;;5.86;100.00;-19926.50;4991976;28;20225;-59
2022/03/31 08:31:08;;;;;;;17.47;14.83;;;4.70;99.90;;;5.93;100.00;-19928.72;4992027;28;20209;-56
2022/03/31 08:33:36;;;;;;;20.07;14.67;;;4.80;99.90;;;6.03;100.00;-19932.13;4991474;28;20241;-55
2022/03/31 08:36:05;;;;;;;17.77;14.50;;;4.90;99.90;;;6.11;100.00;-19934.88;4991449;28;20235;-55
2022/03/31 08:38:33;;;;;;;18.60;14.83;;;4.90;99.90;;;6.28;100.00;-19940.69;4991504;28;20310;-57
2022/03/31 08:41:03;;;;;;;17.80;14.33;;;5.00;99.90;;;6.42;100.00;-19945.47;5000756;28;20239;-56
2022/03/31 08:43:33;;;;;;;16.93;14.17;;;5.10;99.90;;;6.62;100.00;-19952.31;5011289;28;20679;-54
2022/03/31 08:46:07;;;;;;;16.83;14.40;;;5.30;99.90;;;6.79;100.00;-19957.94;5011022;28;20210;-54
2022/03/31 08:48:35;;;;;;;17.47;13.77;;;5.40;99.90;;;6.97;100.00;-19964.09;5010803;28;20723;-57
2022/03/31 08:51:04;;;;;;;17.37;14.30;;;5.60;99.90;;;6.63;100.00;-19952.63;5010744;28;20232;-56
2022/03/31 08:53:33;;;;;;;15.80;14.03;;;5.50;99.90;;;6.55;100.00;-19949.72;5010861;28;20232;-57
2022/03/31 08:56:03;;;;;;;15.83;13.37;;;5.40;99.90;;;6.51;100.00;-19948.53;5010725;28;20225;-61
2022/03/31 08:58:31;;;;;;;19.47;14.07;;;5.30;99.90;;;6.51;100.00;-19948.38;5010947;28;20216;-54
2022/03/31 09:00:59;;;;;;;17.27;13.90;;;5.40;99.90;;;6.31;100.00;-19941.53;5010503;28;20275;-56
2022/03/31 09:03:35;;;;;;;18.37;13.47;;;5.20;99.90;;;6.16;100.00;-19936.75;5010455;28;20274;-54
2022/03/31 09:06:04;;;;;;;16.07;14.23;;;5.10;99.90;;;6.42;100.00;-19945.28;5010238;28;20319;-57
2022/03/31 09:08:33;;;;;;;16.80;14.67;;;5.20;99.90;;;6.33;100.00;-19942.38;4999065;28;20312;-58
2022/03/31 09:11:03;;;;;;;16.40;14.10;;;5.20;99.90;;;6.38;100.00;-19944.09;4998335;28;20314;-56
2022/03/31 09:13:36;;;;;;;18.20;14.43;;;5.20;99.90;;;6.31;100.00;-19941.53;5009411;28;20304;-57
2022/03/31 09:16:08;;;;;;;17.77;13.67;;;5.30;99.90;;;6.35;100.00;-19942.91;5009945;28;20281;-58
2022/03/31 09:18:41;;;;;;;15.10;13.50;;;5.30;99.90;;;6.27;100.00;-19940.34;5010394;28;20247;-58
2022/03/31 09:21:12;;;;;;;18.30;14.13;;;5.20;99.90;;;6.16;100.00;-19936.56;5010251;28;20647;-59
2022/03/31 09:23:44;;;;;;;15.27;13.03;;;5.20;99.90;;;6.23;100.00;-19938.97;5009249;28;20610;-57
2022/03/31 09:26:16;;;;;;;15.00;12.43;;;5.20;99.90;;;6.32;100.00;-19942.03;4998954;28;20302;-58
2022/03/31 09:28:47;;;;;;;15.33;12.33;;;5.20;99.90;;;6.24;100.00;-19939.31;4990667;28;20195;-58
2022/03/31 09:31:24;;;;;;;15.70;12.33;;;5.20;99.90;;;6.42;100.00;-19945.28;4991443;28;20196;-57
2022/03/31 09:33:56;;;;;;;17.27;12.10;;;5.30;99.90;;;6.35;100.00;-19943.06;4990828;28;20295;-55
2022/03/31 09:36:26;;;;;;;14.03;12.23;;;5.20;99.90;;;6.44;100.00;-19945.97;4993213;28;20238;-60
2022/03/31 09:38:58;;;;;;;15.23;12.17;;;5.30;99.90;;;6.54;100.00;-19949.56;5010571;28;20227;-59
2022/03/31 09:41:30;;;;;;;17.50;12.33;;;5.40;99.90;;;6.64;100.00;-19952.97;5010373;28;20307;-58
2022/03/31 09:44:01;;;;;;;15.60;12.77;;;5.30;99.90;;;6.85;100.00;-19960.16;5015450;28;20252;-57
2022/03/31 09:46:33;;;;;;;15.77;13.13;;;5.50;99.90;;;6.97;100.00;-19964.09;5017502;28;20280;-58
2022/03/31 09:49:15;;;;;;;12.23;10.97;;;5.70;99.90;;;6.86;100.00;-19960.34;5016712;28;20232;-59
2022/03/31 09:51:46;;;;;;;13.00;11.60;;;5.70;99.90;;;7.10;100.00;-19968.53;5016723;28;20728;-60
2022/03/31 09:54:14;;;;;;;14.27;11.20;;;5.80;99.90;;;7.10;100.00;-19968.69;5016976;28;20772;-61
2022/03/31 09:56:44;;;;;;;12.80;10.80;;;5.80;99.90;;;6.76;100.00;-19957.09;5001793;28;20232;-59
2022/03/31 09:59:15;;;;;;;14.60;11.17;;;5.70;99.90;;;6.74;100.00;-19956.22;4997459;28;20262;-62
2022/03/31 10:01:53;;;;;;;13.87;11.00;;;5.60;99.90;;;7.02;100.00;-19965.97;4997333;28;20248;-59
2022/03/31 10:04:22;;;;;;;13.53;10.97;;;5.70;99.90;;;6.96;100.00;-19963.75;4998032;28;20210;-56
2022/03/31 10:06:56;;;;;;;13.37;10.00;;;5.70;99.90;;;6.93;100.00;-19962.91;5003384;28;20239;-57
2022/03/31 10:09:25;;;;;;;13.03;10.30;;;5.70;99.90;;;7.19;100.00;-19971.78;5016959;28;20261;-58
2022/03/31 10:12:06;;;;;;;12.20;10.93;;;5.90;99.90;;;7.44;100.00;-19980.16;5016223;28;20228;-60
2022/03/31 10:14:45;;;;;;;11.63;9.67;;;6.00;99.90;;;7.49;98.19;-19981.69;5016570;28;20325;-56
2022/03/31 10:17:15;;;;;;;12.10;9.97;;;6.10;99.90;;;7.02;100.00;-19965.78;5013457;28;20251;-57
2022/03/31 10:19:46;;;;;;;12.27;9.27;;;6.00;99.90;;;7.11;100.00;-19969.03;5017273;28;20297;-59